Pamlico — WX6900 — position and weather

sailwx.info

Track history (hours):
 
Tides and Currents Weather Stations Pressure Air Temp Water Temp Dewpoint Dewpoint Depression Visibility Wind Speed Wind Dir Waves Ship Positions

Pamlico

Owner: PCS Phosphate, AURORA, NC. More information available from US FCC via Universal Licensing System and Coast Guard Vessel Documentation Center.

Last reported at 2014-Oct-29 19:33 UTC. Time now 2014-Oct-31 15:51 UTC.
Position N 34°49' W 076°41'.

Length 30 m; draft 3 m.

MMSI: 367361220.

Date/timePositionNaut miles runAvg speedWind from/ knotsBaromVisibWave heightAir tempDewpointWater temp
2014-Oct-29 19:33N 34°49' W 076°41'5 5.5
2014-Oct-29 18:33N 34°43' W 076°42'1 1.3
2014-Oct-29 17:33N 34°44' W 076°41'5 5.3
2014-Oct-29 16:33N 34°50' W 076°41'4 4.2
2014-Oct-29 15:33N 34°54' W 076°41'5 4.9
2014-Oct-29 14:33N 34°59' W 076°42'8 7.2
2014-Oct-29 13:31N 35°04' W 076°34'7 5.4
2014-Oct-29 12:11N 35°11' W 076°33'16 1.5
2014-Oct-29 01:09N 35°23' W 076°46'0 0.0
2014-Oct-28 08:33N 35°23' W 076°46'0 0.0
2014-Oct-28 07:33N 35°23' W 076°46'13 1.6
2014-Oct-27 23:33N 35°14' W 076°35'7 6.6
2014-Oct-27 22:29N 35°09' W 076°30'11 7.6
2014-Oct-27 21:04N 35°01' W 076°39'4 6.4
2014-Oct-27 20:30N 34°58' W 076°41'6 5.7
2014-Oct-27 19:30N 34°52' W 076°42'6 6.8
2014-Oct-27 18:33N 34°46' W 076°41'3 2.5
2014-Oct-27 17:33N 34°43' W 076°42'0 0.0
2014-Oct-27 16:33N 34°43' W 076°42'0 0.0
2014-Oct-27 15:33N 34°43' W 076°42'0 0.0
2014-Oct-27 14:33N 34°43' W 076°42'0 0.0
2014-Oct-27 13:33N 34°43' W 076°42'0 0.0
2014-Oct-27 12:33N 34°43' W 076°42'0 0.0
2014-Oct-27 11:33N 34°43' W 076°42'0 0.0
2014-Oct-27 10:33N 34°43' W 076°42'0 0.0
2014-Oct-27 09:33N 34°43' W 076°42'0 0.0
2014-Oct-27 08:33N 34°43' W 076°42'0 0.0
2014-Oct-27 07:33N 34°43' W 076°42'0 0.1
2014-Oct-27 06:33N 34°43' W 076°42'2 1.7
2014-Oct-27 05:33N 34°45' W 076°41'6 5.5
2014-Oct-27 04:33N 34°50' W 076°41'4 4.2
2014-Oct-27 03:33N 34°54' W 076°40'5 5.3
2014-Oct-27 02:33N 34°60' W 076°41'7 7.1
2014-Oct-27 01:33N 35°04' W 076°34'6 6.1
2014-Oct-27 00:33N 35°10' W 076°31'16 0.5
2014-Oct-25 18:33N 35°23' W 076°41'6 5.9
2014-Oct-25 17:29N 35°18' W 076°37'14 6.6
2014-Oct-25 15:20N 35°04' W 076°32'7 8.3
2014-Oct-25 14:31N 35°01' W 076°40'7 6.7
2014-Oct-25 13:31N 34°54' W 076°40'7 7.3
2014-Oct-25 12:33N 34°47' W 076°41'4 3.9
2014-Oct-25 11:33N 34°43' W 076°42'0 0.0
2014-Oct-25 10:33N 34°43' W 076°42'0 0.0
2014-Oct-25 09:33N 34°43' W 076°42'0 0.0
2014-Oct-25 08:33N 34°43' W 076°42'0 0.0
2014-Oct-25 07:33N 34°43' W 076°42'0 0.1
2014-Oct-25 06:33N 34°43' W 076°42'1 0.6
2014-Oct-25 05:33N 34°44' W 076°41'6 5.7
2014-Oct-25 04:33N 34°50' W 076°41'5 4.5
2014-Oct-25 03:33N 34°54' W 076°41'5 4.9
2014-Oct-25 02:33N 34°59' W 076°41'7 7.0
2014-Oct-25 01:33N 35°03' W 076°35'7 6.7
2014-Oct-25 00:33N 35°09' W 076°30'14 1.0
2014-Oct-24 10:33N 34°58' W 076°42'5 5.3
2014-Oct-24 09:33N 34°53' W 076°41'6 5.6
2014-Oct-24 08:33N 34°47' W 076°41'4 4.2
2014-Oct-24 07:33N 34°43' W 076°42'2 2.0
2014-Oct-24 06:33N 34°45' W 076°41'6 6.4
2014-Oct-24 05:33N 34°51' W 076°41'5 5.5
2014-Oct-24 04:33N 34°57' W 076°40'5 5.5
2014-Oct-24 03:33N 35°02' W 076°38'7 7.2
2014-Oct-24 02:33N 35°07' W 076°31'  
2014-Oct-21 12:05N 35°08' W 076°30'4 8.1
2014-Oct-21 11:33N 35°04' W 076°33'8 8.4
2014-Oct-21 10:32N 34°59' W 076°41'6 6.4
2014-Oct-21 09:33N 34°53' W 076°41'8 7.6
2014-Oct-21 08:33N 34°45' W 076°40'2 2.2
2014-Oct-21 07:33N 34°43' W 076°42'5 4.5
2014-Oct-21 06:33N 34°48' W 076°41'6 6.4
2014-Oct-21 05:33N 34°54' W 076°40'6 5.7
2014-Oct-21 04:33N 34°60' W 076°41'8 7.4
2014-Oct-21 03:29N 35°04' W 076°33'  
Track history (hours):
 
Tides and Currents Weather Stations Pressure Air Temp Water Temp Dewpoint Dewpoint Depression Visibility Wind Speed Wind Dir Waves Ship Positions

Pamlico

Owner: PCS Phosphate, AURORA, NC. More information available from US FCC via Universal Licensing System and Coast Guard Vessel Documentation Center.

Last reported at 2014-Oct-29 19:33 UTC. Time now 2014-Oct-31 15:51 UTC.
Position N 34°49' W 076°41'.

Length 30 m; draft 3 m.

MMSI: 367361220.

Date/timePositionNaut miles runAvg speedWind from/ knotsBaromVisibWave heightAir tempDewpointWater temp
2014-Oct-29 19:33N 34°49' W 076°41'5 5.5
2014-Oct-29 18:33N 34°43' W 076°42'1 1.3
2014-Oct-29 17:33N 34°44' W 076°41'5 5.3
2014-Oct-29 16:33N 34°50' W 076°41'4 4.2
2014-Oct-29 15:33N 34°54' W 076°41'5 4.9
2014-Oct-29 14:33N 34°59' W 076°42'8 7.2
2014-Oct-29 13:31N 35°04' W 076°34'7 5.4
2014-Oct-29 12:11N 35°11' W 076°33'16 1.5
2014-Oct-29 01:09N 35°23' W 076°46'0 0.0
2014-Oct-28 08:33N 35°23' W 076°46'0 0.0
2014-Oct-28 07:33N 35°23' W 076°46'13 1.6
2014-Oct-27 23:33N 35°14' W 076°35'7 6.6
2014-Oct-27 22:29N 35°09' W 076°30'11 7.6
2014-Oct-27 21:04N 35°01' W 076°39'4 6.4
2014-Oct-27 20:30N 34°58' W 076°41'6 5.7
2014-Oct-27 19:30N 34°52' W 076°42'6 6.8
2014-Oct-27 18:33N 34°46' W 076°41'3 2.5
2014-Oct-27 17:33N 34°43' W 076°42'0 0.0
2014-Oct-27 16:33N 34°43' W 076°42'0 0.0
2014-Oct-27 15:33N 34°43' W 076°42'0 0.0
2014-Oct-27 14:33N 34°43' W 076°42'0 0.0
2014-Oct-27 13:33N 34°43' W 076°42'0 0.0
2014-Oct-27 12:33N 34°43' W 076°42'0 0.0
2014-Oct-27 11:33N 34°43' W 076°42'0 0.0
2014-Oct-27 10:33N 34°43' W 076°42'0 0.0
2014-Oct-27 09:33N 34°43' W 076°42'0 0.0
2014-Oct-27 08:33N 34°43' W 076°42'0 0.0
2014-Oct-27 07:33N 34°43' W 076°42'0 0.1
2014-Oct-27 06:33N 34°43' W 076°42'2 1.7
2014-Oct-27 05:33N 34°45' W 076°41'6 5.5
2014-Oct-27 04:33N 34°50' W 076°41'4 4.2
2014-Oct-27 03:33N 34°54' W 076°40'5 5.3
2014-Oct-27 02:33N 34°60' W 076°41'7 7.1
2014-Oct-27 01:33N 35°04' W 076°34'6 6.1
2014-Oct-27 00:33N 35°10' W 076°31'16 0.5
2014-Oct-25 18:33N 35°23' W 076°41'6 5.9
2014-Oct-25 17:29N 35°18' W 076°37'14 6.6
2014-Oct-25 15:20N 35°04' W 076°32'7 8.3
2014-Oct-25 14:31N 35°01' W 076°40'7 6.7
2014-Oct-25 13:31N 34°54' W 076°40'7 7.3
2014-Oct-25 12:33N 34°47' W 076°41'4 3.9
2014-Oct-25 11:33N 34°43' W 076°42'0 0.0
2014-Oct-25 10:33N 34°43' W 076°42'0 0.0
2014-Oct-25 09:33N 34°43' W 076°42'0 0.0
2014-Oct-25 08:33N 34°43' W 076°42'0 0.0
2014-Oct-25 07:33N 34°43' W 076°42'0 0.1
2014-Oct-25 06:33N 34°43' W 076°42'1 0.6
2014-Oct-25 05:33N 34°44' W 076°41'6 5.7
2014-Oct-25 04:33N 34°50' W 076°41'5 4.5
2014-Oct-25 03:33N 34°54' W 076°41'5 4.9
2014-Oct-25 02:33N 34°59' W 076°41'7 7.0
2014-Oct-25 01:33N 35°03' W 076°35'7 6.7
2014-Oct-25 00:33N 35°09' W 076°30'14 1.0
2014-Oct-24 10:33N 34°58' W 076°42'5 5.3
2014-Oct-24 09:33N 34°53' W 076°41'6 5.6
2014-Oct-24 08:33N 34°47' W 076°41'4 4.2
2014-Oct-24 07:33N 34°43' W 076°42'2 2.0
2014-Oct-24 06:33N 34°45' W 076°41'6 6.4
2014-Oct-24 05:33N 34°51' W 076°41'5 5.5
2014-Oct-24 04:33N 34°57' W 076°40'5 5.5
2014-Oct-24 03:33N 35°02' W 076°38'7 7.2
2014-Oct-24 02:33N 35°07' W 076°31'  
2014-Oct-21 12:05N 35°08' W 076°30'4 8.1
2014-Oct-21 11:33N 35°04' W 076°33'8 8.4
2014-Oct-21 10:32N 34°59' W 076°41'6 6.4
2014-Oct-21 09:33N 34°53' W 076°41'8 7.6
2014-Oct-21 08:33N 34°45' W 076°40'2 2.2
2014-Oct-21 07:33N 34°43' W 076°42'5 4.5
2014-Oct-21 06:33N 34°48' W 076°41'6 6.4
2014-Oct-21 05:33N 34°54' W 076°40'6 5.7
2014-Oct-21 04:33N 34°60' W 076°41'8 7.4
2014-Oct-21 03:29N 35°04' W 076°33'  

Dump ship's entire track history